Terminal Aerodrome Forecast
Issued by NWS Bismarck, ND

Home | Current Version | Previous Version | Graphics & Text | Print | Product List | Glossary On
Versions: 1 2 3 4 5 6 7 8 9 10 11 12 13 14
000
FTUS43 KBIS 191039 AAB
TAFISN
TAF AMD
KISN 191039Z 1911/2006 23009KT P6SM BKN080 OVC110 WS020/29040KT
      TEMPO 1911/1912 -FZRAPL BKN070 OVC090
     FM191200 24006KT P6SM -FZRA BKN060 OVC090 WS020/29035KT
     FM191300 25006KT P6SM SCT120 BKN160
     FM191600 26007KT P6SM FEW180=

USA.gov is the U.S. government's official web portal to all federal, state and local government web resources and services.